sensor_id;sensor_type;location;lat;lon;timestamp;temperature;humidity
19829;DHT22;10075;50.924;4.396;2022-10-22T00:01:47;16.40;99.90
19829;DHT22;10075;50.924;4.396;2022-10-22T00:04:14;16.40;99.90
19829;DHT22;10075;50.924;4.396;2022-10-22T00:06:41;16.40;99.90
19829;DHT22;10075;50.924;4.396;2022-10-22T00:09:09;16.30;99.90
19829;DHT22;10075;50.924;4.396;2022-10-22T00:11:38;16.30;99.90
19829;DHT22;10075;50.924;4.396;2022-10-22T00:14:05;16.30;99.90
19829;DHT22;10075;50.924;4.396;2022-10-22T00:16:32;16.40;99.90
19829;DHT22;10075;50.924;4.396;2022-10-22T00:18:59;16.50;99.90
19829;DHT22;10075;50.924;4.396;2022-10-22T00:21:26;16.40;99.90
19829;DHT22;10075;50.924;4.396;2022-10-22T00:23:53;16.40;99.90
19829;DHT22;10075;50.924;4.396;2022-10-22T00:26:21;16.40;99.90
19829;DHT22;10075;50.924;4.396;2022-10-22T00:28:50;16.40;99.90
19829;DHT22;10075;50.924;4.396;2022-10-22T00:31:17;16.40;99.90
19829;DHT22;10075;50.924;4.396;2022-10-22T00:33:46;16.40;99.90
19829;DHT22;10075;50.924;4.396;2022-10-22T00:36:13;16.40;99.90
19829;DHT22;10075;50.924;4.396;2022-10-22T00:38:40;16.50;99.90
19829;DHT22;10075;50.924;4.396;2022-10-22T00:41:07;16.40;99.90
19829;DHT22;10075;50.924;4.396;2022-10-22T00:43:54;16.40;99.90
19829;DHT22;10075;50.924;4.396;2022-10-22T00:46:21;16.50;99.90
19829;DHT22;10075;50.924;4.396;2022-10-22T00:48:49;16.50;99.90
19829;DHT22;10075;50.924;4.396;2022-10-22T00:51:18;16.50;99.90
19829;DHT22;10075;50.924;4.396;2022-10-22T00:53:49;16.50;99.90
19829;DHT22;10075;50.924;4.396;2022-10-22T00:56:18;16.50;99.90
19829;DHT22;10075;50.924;4.396;2022-10-22T00:58:48;16.60;99.90
19829;DHT22;10075;50.924;4.396;2022-10-22T01:01:23;16.70;99.90
19829;DHT22;10075;50.924;4.396;2022-10-22T01:03:50;16.80;99.90
19829;DHT22;10075;50.924;4.396;2022-10-22T01:06:22;16.50;99.90
19829;DHT22;10075;50.924;4.396;2022-10-22T01:09:00;16.60;99.90
19829;DHT22;10075;50.924;4.396;2022-10-22T01:11:35;16.60;99.90
19829;DHT22;10075;50.924;4.396;2022-10-22T01:14:13;16.60;99.90
19829;DHT22;10075;50.924;4.396;2022-10-22T01:16:49;16.50;99.90
19829;DHT22;10075;50.924;4.396;2022-10-22T01:19:44;16.50;99.90
19829;DHT22;10075;50.924;4.396;2022-10-22T01:22:19;16.50;99.90
19829;DHT22;10075;50.924;4.396;2022-10-22T01:24:55;16.40;99.90
19829;DHT22;10075;50.924;4.396;2022-10-22T01:27:30;16.40;99.90
19829;DHT22;10075;50.924;4.396;2022-10-22T01:30:04;16.50;99.90
19829;DHT22;10075;50.924;4.396;2022-10-22T01:32:35;16.50;99.90
19829;DHT22;10075;50.924;4.396;2022-10-22T01:35:06;16.40;99.90
19829;DHT22;10075;50.924;4.396;2022-10-22T01:37:38;16.50;99.90
19829;DHT22;10075;50.924;4.396;2022-10-22T01:40:08;16.50;99.90
19829;DHT22;10075;50.924;4.396;2022-10-22T01:42:36;16.50;99.90
19829;DHT22;10075;50.924;4.396;2022-10-22T01:45:10;16.50;99.90
19829;DHT22;10075;50.924;4.396;2022-10-22T01:47:42;16.50;99.90
19829;DHT22;10075;50.924;4.396;2022-10-22T01:50:36;16.50;99.90
19829;DHT22;10075;50.924;4.396;2022-10-22T01:53:18;16.30;99.90
19829;DHT22;10075;50.924;4.396;2022-10-22T01:56:00;16.40;99.90
19829;DHT22;10075;50.924;4.396;2022-10-22T01:58:38;16.50;99.90
19829;DHT22;10075;50.924;4.396;2022-10-22T02:01:14;16.40;99.90
19829;DHT22;10075;50.924;4.396;2022-10-22T02:03:54;16.50;99.90
19829;DHT22;10075;50.924;4.396;2022-10-22T02:06:24;16.50;99.90
19829;DHT22;10075;50.924;4.396;2022-10-22T02:08:52;16.30;99.90
19829;DHT22;10075;50.924;4.396;2022-10-22T02:11:20;16.30;99.90
19829;DHT22;10075;50.924;4.396;2022-10-22T02:13:48;16.30;99.90
19829;DHT22;10075;50.924;4.396;2022-10-22T02:16:19;16.30;99.90
19829;DHT22;10075;50.924;4.396;2022-10-22T02:18:50;16.20;99.90
19829;DHT22;10075;50.924;4.396;2022-10-22T02:21:18;16.20;99.90
19829;DHT22;10075;50.924;4.396;2022-10-22T02:23:45;16.30;99.90
19829;DHT22;10075;50.924;4.396;2022-10-22T02:26:18;16.50;99.90
19829;DHT22;10075;50.924;4.396;2022-10-22T02:28:54;16.40;99.90
19829;DHT22;10075;50.924;4.396;2022-10-22T02:31:27;16.30;99.90
19829;DHT22;10075;50.924;4.396;2022-10-22T02:34:00;16.30;99.90
19829;DHT22;10075;50.924;4.396;2022-10-22T02:36:29;16.20;99.90
19829;DHT22;10075;50.924;4.396;2022-10-22T02:38:57;16.30;99.90
19829;DHT22;10075;50.924;4.396;2022-10-22T02:41:25;16.30;99.90
19829;DHT22;10075;50.924;4.396;2022-10-22T02:43:54;16.30;99.90
19829;DHT22;10075;50.924;4.396;2022-10-22T02:46:21;16.30;99.90
19829;DHT22;10075;50.924;4.396;2022-10-22T02:48:50;16.20;99.90
19829;DHT22;10075;50.924;4.396;2022-10-22T02:51:17;16.10;99.90
19829;DHT22;10075;50.924;4.396;2022-10-22T02:53:44;16.10;99.90
19829;DHT22;10075;50.924;4.396;2022-10-22T02:56:11;16.00;99.90
19829;DHT22;10075;50.924;4.396;2022-10-22T02:58:38;16.00;99.90
19829;DHT22;10075;50.924;4.396;2022-10-22T03:01:05;16.10;99.90
19829;DHT22;10075;50.924;4.396;2022-10-22T03:03:32;16.10;99.90
19829;DHT22;10075;50.924;4.396;2022-10-22T03:06:01;16.10;99.90
19829;DHT22;10075;50.924;4.396;2022-10-22T03:08:28;16.00;99.90
19829;DHT22;10075;50.924;4.396;2022-10-22T03:10:55;16.20;99.90
19829;DHT22;10075;50.924;4.396;2022-10-22T03:13:22;16.20;99.90
19829;DHT22;10075;50.924;4.396;2022-10-22T03:15:49;16.30;99.90
19829;DHT22;10075;50.924;4.396;2022-10-22T03:18:16;16.30;99.90
19829;DHT22;10075;50.924;4.396;2022-10-22T03:20:43;16.20;99.90
19829;DHT22;10075;50.924;4.396;2022-10-22T03:23:14;16.20;99.90
19829;DHT22;10075;50.924;4.396;2022-10-22T03:25:44;16.30;99.90
19829;DHT22;10075;50.924;4.396;2022-10-22T03:28:14;16.20;99.90
19829;DHT22;10075;50.924;4.396;2022-10-22T03:30:43;16.20;99.90
19829;DHT22;10075;50.924;4.396;2022-10-22T03:33:10;16.10;99.90
19829;DHT22;10075;50.924;4.396;2022-10-22T03:35:41;16.10;99.90
19829;DHT22;10075;50.924;4.396;2022-10-22T03:38:09;16.10;99.90
19829;DHT22;10075;50.924;4.396;2022-10-22T03:40:38;16.20;99.90
19829;DHT22;10075;50.924;4.396;2022-10-22T03:43:05;16.20;99.90
19829;DHT22;10075;50.924;4.396;2022-10-22T03:45:32;16.30;99.90
19829;DHT22;10075;50.924;4.396;2022-10-22T03:47:59;16.20;99.90
19829;DHT22;10075;50.924;4.396;2022-10-22T03:50:26;16.20;99.90
19829;DHT22;10075;50.924;4.396;2022-10-22T03:52:53;16.30;99.90
19829;DHT22;10075;50.924;4.396;2022-10-22T03:55:20;16.30;99.90
19829;DHT22;10075;50.924;4.396;2022-10-22T03:57:48;16.50;99.90
19829;DHT22;10075;50.924;4.396;2022-10-22T04:00:15;16.50;99.90
19829;DHT22;10075;50.924;4.396;2022-10-22T04:02:43;16.50;99.90
19829;DHT22;10075;50.924;4.396;2022-10-22T04:05:10;16.40;99.90
19829;DHT22;10075;50.924;4.396;2022-10-22T04:07:36;16.30;99.90
19829;DHT22;10075;50.924;4.396;2022-10-22T04:10:04;16.30;99.90
19829;DHT22;10075;50.924;4.396;2022-10-22T04:12:31;16.20;99.90
19829;DHT22;10075;50.924;4.396;2022-10-22T04:15:00;16.20;99.90
19829;DHT22;10075;50.924;4.396;2022-10-22T04:17:32;16.20;99.90
19829;DHT22;10075;50.924;4.396;2022-10-22T04:19:59;16.10;99.90
19829;DHT22;10075;50.924;4.396;2022-10-22T04:22:26;16.00;99.90
19829;DHT22;10075;50.924;4.396;2022-10-22T04:24:53;15.90;99.90
19829;DHT22;10075;50.924;4.396;2022-10-22T04:27:20;16.00;99.90
19829;DHT22;10075;50.924;4.396;2022-10-22T04:29:47;16.00;99.90
19829;DHT22;10075;50.924;4.396;2022-10-22T04:32:15;16.00;99.90
19829;DHT22;10075;50.924;4.396;2022-10-22T04:34:42;16.10;99.90
19829;DHT22;10075;50.924;4.396;2022-10-22T04:37:09;16.10;99.90
19829;DHT22;10075;50.924;4.396;2022-10-22T04:39:36;16.00;99.90
19829;DHT22;10075;50.924;4.396;2022-10-22T04:42:03;16.00;99.90
19829;DHT22;10075;50.924;4.396;2022-10-22T04:44:30;15.90;99.90
19829;DHT22;10075;50.924;4.396;2022-10-22T04:46:57;15.90;99.90
19829;DHT22;10075;50.924;4.396;2022-10-22T04:49:26;15.80;99.90
19829;DHT22;10075;50.924;4.396;2022-10-22T04:51:53;15.80;99.90
19829;DHT22;10075;50.924;4.396;2022-10-22T04:54:20;15.80;99.90
19829;DHT22;10075;50.924;4.396;2022-10-22T04:56:47;15.70;99.90
19829;DHT22;10075;50.924;4.396;2022-10-22T04:59:14;15.60;99.90
19829;DHT22;10075;50.924;4.396;2022-10-22T05:01:42;15.60;99.90
19829;DHT22;10075;50.924;4.396;2022-10-22T05:04:11;15.60;99.90
19829;DHT22;10075;50.924;4.396;2022-10-22T05:06:40;15.70;99.90
19829;DHT22;10075;50.924;4.396;2022-10-22T05:09:10;15.60;99.90
19829;DHT22;10075;50.924;4.396;2022-10-22T05:11:39;15.60;99.90
19829;DHT22;10075;50.924;4.396;2022-10-22T05:14:10;15.70;99.90
19829;DHT22;10075;50.924;4.396;2022-10-22T05:16:38;15.80;99.90
19829;DHT22;10075;50.924;4.396;2022-10-22T05:19:05;16.00;99.90
19829;DHT22;10075;50.924;4.396;2022-10-22T05:21:33;16.00;99.90
19829;DHT22;10075;50.924;4.396;2022-10-22T05:24:01;16.10;99.90
19829;DHT22;10075;50.924;4.396;2022-10-22T05:26:29;16.10;99.90
19829;DHT22;10075;50.924;4.396;2022-10-22T05:28:56;16.20;99.90
19829;DHT22;10075;50.924;4.396;2022-10-22T05:31:23;16.30;99.90
19829;DHT22;10075;50.924;4.396;2022-10-22T05:33:50;16.20;99.90
19829;DHT22;10075;50.924;4.396;2022-10-22T05:36:20;16.20;99.90
19829;DHT22;10075;50.924;4.396;2022-10-22T05:38:47;16.20;99.90
19829;DHT22;10075;50.924;4.396;2022-10-22T05:41:17;16.30;99.90
19829;DHT22;10075;50.924;4.396;2022-10-22T05:43:45;16.40;99.90
19829;DHT22;10075;50.924;4.396;2022-10-22T05:46:14;16.40;99.90
19829;DHT22;10075;50.924;4.396;2022-10-22T05:48:41;16.50;99.90
19829;DHT22;10075;50.924;4.396;2022-10-22T05:51:10;16.60;99.90
19829;DHT22;10075;50.924;4.396;2022-10-22T05:53:39;16.60;99.90
19829;DHT22;10075;50.924;4.396;2022-10-22T05:56:09;16.50;99.90
19829;DHT22;10075;50.924;4.396;2022-10-22T05:58:38;16.50;99.90
19829;DHT22;10075;50.924;4.396;2022-10-22T06:01:07;16.50;99.90
19829;DHT22;10075;50.924;4.396;2022-10-22T06:03:34;16.50;99.90
19829;DHT22;10075;50.924;4.396;2022-10-22T06:06:03;16.30;99.90
19829;DHT22;10075;50.924;4.396;2022-10-22T06:08:31;16.30;99.90
19829;DHT22;10075;50.924;4.396;2022-10-22T06:10:58;16.20;99.90
19829;DHT22;10075;50.924;4.396;2022-10-22T06:13:25;16.20;99.90
19829;DHT22;10075;50.924;4.396;2022-10-22T06:15:53;16.20;99.90
19829;DHT22;10075;50.924;4.396;2022-10-22T06:18:20;16.20;99.90
19829;DHT22;10075;50.924;4.396;2022-10-22T06:20:47;16.20;99.90
19829;DHT22;10075;50.924;4.396;2022-10-22T06:23:15;16.20;99.90
19829;DHT22;10075;50.924;4.396;2022-10-22T06:25:42;16.20;99.90
19829;DHT22;10075;50.924;4.396;2022-10-22T06:28:09;16.20;99.90
19829;DHT22;10075;50.924;4.396;2022-10-22T06:30:37;16.30;99.90
19829;DHT22;10075;50.924;4.396;2022-10-22T06:33:05;16.40;99.90
19829;DHT22;10075;50.924;4.396;2022-10-22T06:35:32;16.50;99.90
19829;DHT22;10075;50.924;4.396;2022-10-22T06:38:00;16.60;99.90
19829;DHT22;10075;50.924;4.396;2022-10-22T06:40:27;16.60;99.90
19829;DHT22;10075;50.924;4.396;2022-10-22T06:42:54;16.60;99.90
19829;DHT22;10075;50.924;4.396;2022-10-22T06:45:21;16.60;99.90
19829;DHT22;10075;50.924;4.396;2022-10-22T06:47:48;16.50;99.90
19829;DHT22;10075;50.924;4.396;2022-10-22T06:50:17;16.50;99.90
19829;DHT22;10075;50.924;4.396;2022-10-22T06:52:44;16.50;99.90
19829;DHT22;10075;50.924;4.396;2022-10-22T06:55:11;16.40;99.90
19829;DHT22;10075;50.924;4.396;2022-10-22T06:57:38;16.50;99.90
19829;DHT22;10075;50.924;4.396;2022-10-22T07:00:06;16.50;99.90
19829;DHT22;10075;50.924;4.396;2022-10-22T07:02:33;16.60;99.90
19829;DHT22;10075;50.924;4.396;2022-10-22T07:05:00;16.50;99.90
19829;DHT22;10075;50.924;4.396;2022-10-22T07:07:29;16.50;99.90
19829;DHT22;10075;50.924;4.396;2022-10-22T07:09:56;16.50;99.90
19829;DHT22;10075;50.924;4.396;2022-10-22T07:12:23;16.60;99.90
19829;DHT22;10075;50.924;4.396;2022-10-22T07:14:50;16.70;99.90
19829;DHT22;10075;50.924;4.396;2022-10-22T07:17:17;16.60;99.90
19829;DHT22;10075;50.924;4.396;2022-10-22T07:19:44;16.60;99.90
19829;DHT22;10075;50.924;4.396;2022-10-22T07:22:11;16.60;99.90
19829;DHT22;10075;50.924;4.396;2022-10-22T07:24:39;16.60;99.90
19829;DHT22;10075;50.924;4.396;2022-10-22T07:27:06;16.70;99.90
19829;DHT22;10075;50.924;4.396;2022-10-22T07:29:33;16.70;99.90
19829;DHT22;10075;50.924;4.396;2022-10-22T07:32:00;16.70;99.90
19829;DHT22;10075;50.924;4.396;2022-10-22T07:34:27;16.80;99.90
19829;DHT22;10075;50.924;4.396;2022-10-22T07:36:54;16.70;99.90
19829;DHT22;10075;50.924;4.396;2022-10-22T07:39:21;16.60;99.90
19829;DHT22;10075;50.924;4.396;2022-10-22T07:41:51;16.60;99.90
19829;DHT22;10075;50.924;4.396;2022-10-22T07:44:18;16.60;99.90
19829;DHT22;10075;50.924;4.396;2022-10-22T07:46:46;16.50;99.90
19829;DHT22;10075;50.924;4.396;2022-10-22T07:49:12;16.70;99.90
19829;DHT22;10075;50.924;4.396;2022-10-22T07:51:39;16.80;99.90
19829;DHT22;10075;50.924;4.396;2022-10-22T07:54:07;16.80;99.90
19829;DHT22;10075;50.924;4.396;2022-10-22T07:56:34;16.70;99.90
19829;DHT22;10075;50.924;4.396;2022-10-22T07:59:02;16.80;99.90
19829;DHT22;10075;50.924;4.396;2022-10-22T08:01:29;16.90;99.90
19829;DHT22;10075;50.924;4.396;2022-10-22T08:03:56;17.10;99.90
19829;DHT22;10075;50.924;4.396;2022-10-22T08:06:23;17.30;99.90
19829;DHT22;10075;50.924;4.396;2022-10-22T08:08:50;17.30;99.90
19829;DHT22;10075;50.924;4.396;2022-10-22T08:11:17;17.30;99.90
19829;DHT22;10075;50.924;4.396;2022-10-22T08:13:44;17.40;99.90
19829;DHT22;10075;50.924;4.396;2022-10-22T08:16:12;17.60;99.90
19829;DHT22;10075;50.924;4.396;2022-10-22T08:18:39;17.70;99.90
19829;DHT22;10075;50.924;4.396;2022-10-22T08:21:06;17.70;99.90
19829;DHT22;10075;50.924;4.396;2022-10-22T08:23:33;17.80;99.90
19829;DHT22;10075;50.924;4.396;2022-10-22T08:26:00;17.80;99.90
19829;DHT22;10075;50.924;4.396;2022-10-22T08:28:28;17.80;99.90
19829;DHT22;10075;50.924;4.396;2022-10-22T08:30:57;17.80;99.90
19829;DHT22;10075;50.924;4.396;2022-10-22T08:33:25;17.90;99.90
19829;DHT22;10075;50.924;4.396;2022-10-22T08:35:52;18.00;99.90
19829;DHT22;10075;50.924;4.396;2022-10-22T08:38:19;18.10;99.90
19829;DHT22;10075;50.924;4.396;2022-10-22T08:40:49;18.10;99.90
19829;DHT22;10075;50.924;4.396;2022-10-22T08:43:54;18.10;99.90
19829;DHT22;10075;50.924;4.396;2022-10-22T08:46:37;18.20;99.90
19829;DHT22;10075;50.924;4.396;2022-10-22T08:49:11;18.10;99.90
19829;DHT22;10075;50.924;4.396;2022-10-22T08:51:42;18.00;99.90
19829;DHT22;10075;50.924;4.396;2022-10-22T08:54:29;17.90;99.90
19829;DHT22;10075;50.924;4.396;2022-10-22T08:57:13;17.90;99.90
19829;DHT22;10075;50.924;4.396;2022-10-22T08:59:45;17.90;99.90
19829;DHT22;10075;50.924;4.396;2022-10-22T09:02:31;17.90;99.90
19829;DHT22;10075;50.924;4.396;2022-10-22T09:05:11;18.10;99.90
19829;DHT22;10075;50.924;4.396;2022-10-22T09:07:43;18.20;99.90
19829;DHT22;10075;50.924;4.396;2022-10-22T09:10:15;18.10;99.90
19829;DHT22;10075;50.924;4.396;2022-10-22T09:12:42;18.10;99.90
19829;DHT22;10075;50.924;4.396;2022-10-22T09:15:12;18.20;99.90
19829;DHT22;10075;50.924;4.396;2022-10-22T09:17:49;18.20;99.90
19829;DHT22;10075;50.924;4.396;2022-10-22T09:20:27;18.50;99.90
19829;DHT22;10075;50.924;4.396;2022-10-22T09:23:04;18.50;99.90
19829;DHT22;10075;50.924;4.396;2022-10-22T09:25:38;18.40;99.90
19829;DHT22;10075;50.924;4.396;2022-10-22T09:28:08;18.50;99.90
19829;DHT22;10075;50.924;4.396;2022-10-22T09:30:37;18.60;99.90
19829;DHT22;10075;50.924;4.396;2022-10-22T09:33:13;18.40;99.90
19829;DHT22;10075;50.924;4.396;2022-10-22T09:35:47;18.30;99.90
19829;DHT22;10075;50.924;4.396;2022-10-22T09:38:17;18.10;99.90
19829;DHT22;10075;50.924;4.396;2022-10-22T09:40:47;18.20;99.90
19829;DHT22;10075;50.924;4.396;2022-10-22T09:43:15;18.20;99.90
19829;DHT22;10075;50.924;4.396;2022-10-22T09:45:44;18.20;99.90
19829;DHT22;10075;50.924;4.396;2022-10-22T09:48:18;18.40;99.90
19829;DHT22;10075;50.924;4.396;2022-10-22T09:50:54;18.60;99.90
19829;DHT22;10075;50.924;4.396;2022-10-22T09:53:25;18.90;99.90
19829;DHT22;10075;50.924;4.396;2022-10-22T09:55:58;19.10;99.90
19829;DHT22;10075;50.924;4.396;2022-10-22T09:58:25;19.20;99.90
19829;DHT22;10075;50.924;4.396;2022-10-22T10:00:55;19.30;99.90
19829;DHT22;10075;50.924;4.396;2022-10-22T10:03:25;19.10;99.90
19829;DHT22;10075;50.924;4.396;2022-10-22T10:05:56;19.10;99.90
19829;DHT22;10075;50.924;4.396;2022-10-22T10:08:23;19.20;99.90
19829;DHT22;10075;50.924;4.396;2022-10-22T10:10:52;19.10;99.90
19829;DHT22;10075;50.924;4.396;2022-10-22T10:13:33;18.80;99.90
19829;DHT22;10075;50.924;4.396;2022-10-22T10:16:08;18.70;99.90
19829;DHT22;10075;50.924;4.396;2022-10-22T10:18:46;19.00;99.90
19829;DHT22;10075;50.924;4.396;2022-10-22T10:21:28;19.40;99.90
19829;DHT22;10075;50.924;4.396;2022-10-22T10:24:01;19.60;99.90
19829;DHT22;10075;50.924;4.396;2022-10-22T10:26:34;19.60;99.90
19829;DHT22;10075;50.924;4.396;2022-10-22T10:29:16;19.90;99.90
19829;DHT22;10075;50.924;4.396;2022-10-22T10:31:55;20.20;99.90
19829;DHT22;10075;50.924;4.396;2022-10-22T10:34:34;20.30;99.90
19829;DHT22;10075;50.924;4.396;2022-10-22T10:37:13;20.40;99.90
19829;DHT22;10075;50.924;4.396;2022-10-22T10:40:00;20.30;99.90
19829;DHT22;10075;50.924;4.396;2022-10-22T10:42:34;20.60;99.90
19829;DHT22;10075;50.924;4.396;2022-10-22T10:45:12;20.40;99.90
19829;DHT22;10075;50.924;4.396;2022-10-22T10:48:08;20.50;99.90
19829;DHT22;10075;50.924;4.396;2022-10-22T10:50:49;20.90;99.90
19829;DHT22;10075;50.924;4.396;2022-10-22T10:53:26;21.20;99.90
19829;DHT22;10075;50.924;4.396;2022-10-22T10:56:03;21.30;99.90
19829;DHT22;10075;50.924;4.396;2022-10-22T10:58:38;21.40;99.90
19829;DHT22;10075;50.924;4.396;2022-10-22T11:01:14;21.50;99.90
19829;DHT22;10075;50.924;4.396;2022-10-22T11:03:55;21.60;99.90
19829;DHT22;10075;50.924;4.396;2022-10-22T11:06:25;21.60;99.90
19829;DHT22;10075;50.924;4.396;2022-10-22T11:08:58;21.60;99.90
19829;DHT22;10075;50.924;4.396;2022-10-22T11:11:31;21.40;99.90
19829;DHT22;10075;50.924;4.396;2022-10-22T11:14:03;21.40;99.90
19829;DHT22;10075;50.924;4.396;2022-10-22T11:16:38;21.30;99.90
19829;DHT22;10075;50.924;4.396;2022-10-22T11:19:14;21.40;99.90
19829;DHT22;10075;50.924;4.396;2022-10-22T11:21:49;21.30;99.90
19829;DHT22;10075;50.924;4.396;2022-10-22T11:24:22;21.30;99.90
19829;DHT22;10075;50.924;4.396;2022-10-22T11:26:54;21.30;99.90
19829;DHT22;10075;50.924;4.396;2022-10-22T11:29:26;21.40;99.90
19829;DHT22;10075;50.924;4.396;2022-10-22T11:31:54;21.10;99.90
19829;DHT22;10075;50.924;4.396;2022-10-22T11:34:26;21.10;99.90
19829;DHT22;10075;50.924;4.396;2022-10-22T11:36:55;21.10;99.90
19829;DHT22;10075;50.924;4.396;2022-10-22T11:39:35;21.10;99.90
19829;DHT22;10075;50.924;4.396;2022-10-22T11:42:05;21.10;99.90
19829;DHT22;10075;50.924;4.396;2022-10-22T11:44:48;21.00;99.90
19829;DHT22;10075;50.924;4.396;2022-10-22T11:47:26;21.10;99.90
19829;DHT22;10075;50.924;4.396;2022-10-22T11:49:57;21.10;99.90
19829;DHT22;10075;50.924;4.396;2022-10-22T11:52:37;21.30;99.90
19829;DHT22;10075;50.924;4.396;2022-10-22T11:55:29;21.20;99.90
19829;DHT22;10075;50.924;4.396;2022-10-22T11:57:58;21.00;99.90
19829;DHT22;10075;50.924;4.396;2022-10-22T12:00:36;20.80;99.90
19829;DHT22;10075;50.924;4.396;2022-10-22T12:03:15;20.70;99.90
19829;DHT22;10075;50.924;4.396;2022-10-22T12:05:43;20.70;99.90
19829;DHT22;10075;50.924;4.396;2022-10-22T12:08:24;20.80;99.90
19829;DHT22;10075;50.924;4.396;2022-10-22T12:11:05;20.80;99.90
19829;DHT22;10075;50.924;4.396;2022-10-22T12:13:55;20.90;99.90
19829;DHT22;10075;50.924;4.396;2022-10-22T12:16:25;21.00;99.90
19829;DHT22;10075;50.924;4.396;2022-10-22T12:18:57;21.10;99.90
19829;DHT22;10075;50.924;4.396;2022-10-22T12:21:27;21.20;99.90
19829;DHT22;10075;50.924;4.396;2022-10-22T12:23:55;21.30;99.90
19829;DHT22;10075;50.924;4.396;2022-10-22T12:26:26;21.60;99.90
19829;DHT22;10075;50.924;4.396;2022-10-22T12:28:57;21.60;99.90
19829;DHT22;10075;50.924;4.396;2022-10-22T12:31:25;21.70;99.90
19829;DHT22;10075;50.924;4.396;2022-10-22T12:33:55;21.90;99.90
19829;DHT22;10075;50.924;4.396;2022-10-22T12:36:25;22.00;99.90
19829;DHT22;10075;50.924;4.396;2022-10-22T12:38:52;22.00;99.90
19829;DHT22;10075;50.924;4.396;2022-10-22T12:41:20;22.20;99.90
19829;DHT22;10075;50.924;4.396;2022-10-22T12:43:49;22.40;99.90
19829;DHT22;10075;50.924;4.396;2022-10-22T12:46:24;22.50;99.90
19829;DHT22;10075;50.924;4.396;2022-10-22T12:48:52;22.40;99.90
19829;DHT22;10075;50.924;4.396;2022-10-22T12:51:21;22.10;99.90
19829;DHT22;10075;50.924;4.396;2022-10-22T12:53:50;21.80;99.90
19829;DHT22;10075;50.924;4.396;2022-10-22T12:56:22;21.50;99.90
19829;DHT22;10075;50.924;4.396;2022-10-22T12:58:56;21.50;99.90
19829;DHT22;10075;50.924;4.396;2022-10-22T13:01:26;21.60;99.90
19829;DHT22;10075;50.924;4.396;2022-10-22T13:04:04;21.20;99.90
19829;DHT22;10075;50.924;4.396;2022-10-22T13:06:33;21.20;99.90
19829;DHT22;10075;50.924;4.396;2022-10-22T13:09:06;21.20;99.90
19829;DHT22;10075;50.924;4.396;2022-10-22T13:11:37;21.10;99.90
19829;DHT22;10075;50.924;4.396;2022-10-22T13:14:25;21.30;99.90
19829;DHT22;10075;50.924;4.396;2022-10-22T13:17:10;21.40;99.90
19829;DHT22;10075;50.924;4.396;2022-10-22T13:19:59;21.50;99.90
19829;DHT22;10075;50.924;4.396;2022-10-22T13:22:32;21.50;99.90
19829;DHT22;10075;50.924;4.396;2022-10-22T13:25:16;21.40;99.90
19829;DHT22;10075;50.924;4.396;2022-10-22T13:27:46;21.20;99.90
19829;DHT22;10075;50.924;4.396;2022-10-22T13:30:21;21.10;99.90
19829;DHT22;10075;50.924;4.396;2022-10-22T13:32:50;20.90;99.90
19829;DHT22;10075;50.924;4.396;2022-10-22T13:35:20;20.80;99.90
19829;DHT22;10075;50.924;4.396;2022-10-22T13:37:47;20.80;99.90
19829;DHT22;10075;50.924;4.396;2022-10-22T13:40:14;20.70;99.90
19829;DHT22;10075;50.924;4.396;2022-10-22T13:42:42;20.80;99.90
19829;DHT22;10075;50.924;4.396;2022-10-22T13:45:09;21.00;99.90
19829;DHT22;10075;50.924;4.396;2022-10-22T13:47:37;20.90;99.90
19829;DHT22;10075;50.924;4.396;2022-10-22T13:50:12;20.90;99.90
19829;DHT22;10075;50.924;4.396;2022-10-22T13:52:40;21.00;99.90
19829;DHT22;10075;50.924;4.396;2022-10-22T13:55:16;21.20;99.90
19829;DHT22;10075;50.924;4.396;2022-10-22T13:57:44;21.30;99.90
19829;DHT22;10075;50.924;4.396;2022-10-22T14:00:13;21.40;99.90
19829;DHT22;10075;50.924;4.396;2022-10-22T14:02:42;21.50;99.90
19829;DHT22;10075;50.924;4.396;2022-10-22T14:05:10;21.60;99.90
19829;DHT22;10075;50.924;4.396;2022-10-22T14:07:37;21.50;99.90
19829;DHT22;10075;50.924;4.396;2022-10-22T14:10:16;21.60;99.90
19829;DHT22;10075;50.924;4.396;2022-10-22T14:12:44;21.70;99.90
19829;DHT22;10075;50.924;4.396;2022-10-22T14:15:14;21.70;99.90
19829;DHT22;10075;50.924;4.396;2022-10-22T14:17:45;21.80;99.90
19829;DHT22;10075;50.924;4.396;2022-10-22T14:20:16;21.80;99.90
19829;DHT22;10075;50.924;4.396;2022-10-22T14:22:44;21.60;99.90
19829;DHT22;10075;50.924;4.396;2022-10-22T14:25:14;21.50;99.90
19829;DHT22;10075;50.924;4.396;2022-10-22T14:27:42;21.20;99.90
19829;DHT22;10075;50.924;4.396;2022-10-22T14:30:12;21.00;99.90
19829;DHT22;10075;50.924;4.396;2022-10-22T14:32:40;21.00;99.90
19829;DHT22;10075;50.924;4.396;2022-10-22T14:35:10;21.10;99.90
19829;DHT22;10075;50.924;4.396;2022-10-22T14:37:37;21.10;99.90
19829;DHT22;10075;50.924;4.396;2022-10-22T14:40:06;21.10;99.90
19829;DHT22;10075;50.924;4.396;2022-10-22T14:42:34;21.00;99.90
19829;DHT22;10075;50.924;4.396;2022-10-22T14:45:03;20.90;99.90
19829;DHT22;10075;50.924;4.396;2022-10-22T14:47:30;21.00;99.90
19829;DHT22;10075;50.924;4.396;2022-10-22T14:49:57;21.10;99.90
19829;DHT22;10075;50.924;4.396;2022-10-22T14:52:27;21.20;99.90
19829;DHT22;10075;50.924;4.396;2022-10-22T14:54:54;21.30;99.90
19829;DHT22;10075;50.924;4.396;2022-10-22T14:57:21;21.50;99.90
19829;DHT22;10075;50.924;4.396;2022-10-22T14:59:48;21.70;99.90
19829;DHT22;10075;50.924;4.396;2022-10-22T15:02:19;21.80;99.90
19829;DHT22;10075;50.924;4.396;2022-10-22T15:04:46;22.00;99.90
19829;DHT22;10075;50.924;4.396;2022-10-22T15:07:14;21.90;99.90
19829;DHT22;10075;50.924;4.396;2022-10-22T15:09:43;21.90;99.90
19829;DHT22;10075;50.924;4.396;2022-10-22T15:12:10;21.90;99.90
19829;DHT22;10075;50.924;4.396;2022-10-22T15:14:37;21.90;99.90
19829;DHT22;10075;50.924;4.396;2022-10-22T15:17:04;21.80;99.90
19829;DHT22;10075;50.924;4.396;2022-10-22T15:19:31;21.80;99.90
19829;DHT22;10075;50.924;4.396;2022-10-22T15:21:58;21.60;99.90
19829;DHT22;10075;50.924;4.396;2022-10-22T15:24:25;21.60;99.90
19829;DHT22;10075;50.924;4.396;2022-10-22T15:26:53;21.50;99.90
19829;DHT22;10075;50.924;4.396;2022-10-22T15:29:20;21.50;99.90
19829;DHT22;10075;50.924;4.396;2022-10-22T15:31:49;21.40;99.90
19829;DHT22;10075;50.924;4.396;2022-10-22T15:34:22;21.30;99.90
19829;DHT22;10075;50.924;4.396;2022-10-22T15:36:50;21.20;99.90
19829;DHT22;10075;50.924;4.396;2022-10-22T15:39:17;21.20;99.90
19829;DHT22;10075;50.924;4.396;2022-10-22T15:41:44;21.30;99.90
19829;DHT22;10075;50.924;4.396;2022-10-22T15:44:16;21.20;99.90
19829;DHT22;10075;50.924;4.396;2022-10-22T15:46:43;21.20;99.90
19829;DHT22;10075;50.924;4.396;2022-10-22T15:49:11;21.10;99.90
19829;DHT22;10075;50.924;4.396;2022-10-22T15:51:38;21.10;99.90